地図

経路データ

SID SEASON NUMBER BASIN SUBBASIN NAME ISO_TIME NATURE LAT LON WMO_WIND WMO_PRES WMO_AGENCY TRACK_TYPE DIST2LAND LANDFALL IFLAG USA_AGENCY USA_ATCF_ID USA_LAT USA_LON USA_RECORD USA_STATUS USA_WIND USA_PRES USA_SSHS USA_R34_NE USA_R34_SE USA_R34_SW USA_R34_NW USA_R50_NE USA_R50_SE USA_R50_SW USA_R50_NW USA_R64_NE USA_R64_SE USA_R64_SW USA_R64_NW USA_POCI USA_ROCI USA_RMW USA_EYE TOKYO_LAT TOKYO_LON TOKYO_GRADE TOKYO_WIND TOKYO_PRES TOKYO_R50_DIR TOKYO_R50_LONG TOKYO_R50_SHORT TOKYO_R30_DIR TOKYO_R30_LONG TOKYO_R30_SHORT TOKYO_LAND CMA_LAT CMA_LON CMA_CAT CMA_WIND CMA_PRES HKO_LAT HKO_LON HKO_CAT HKO_WIND HKO_PRES NEWDELHI_LAT NEWDELHI_LON NEWDELHI_GRADE NEWDELHI_WIND NEWDELHI_PRES NEWDELHI_CI NEWDELHI_DP NEWDELHI_POCI REUNION_LAT REUNION_LON REUNION_TYPE REUNION_WIND REUNION_PRES REUNION_TNUM REUNION_CI REUNION_RMW REUNION_R34_NE REUNION_R34_SE REUNION_R34_SW REUNION_R34_NW REUNION_R50_NE REUNION_R50_SE REUNION_R50_SW REUNION_R50_NW REUNION_R64_NE REUNION_R64_SE REUNION_R64_SW REUNION_R64_NW BOM_LAT BOM_LON BOM_TYPE BOM_WIND BOM_PRES BOM_TNUM BOM_CI BOM_RMW BOM_R34_NE BOM_R34_SE BOM_R34_SW BOM_R34_NW BOM_R50_NE BOM_R50_SE BOM_R50_SW BOM_R50_NW BOM_R64_NE BOM_R64_SE BOM_R64_SW BOM_R64_NW BOM_ROCI BOM_POCI BOM_EYE BOM_POS_METHOD BOM_PRES_METHOD NADI_LAT NADI_LON NADI_CAT NADI_WIND NADI_PRES WELLINGTON_LAT WELLINGTON_LON WELLINGTON_WIND WELLINGTON_PRES DS824_LAT DS824_LON DS824_STAGE DS824_WIND DS824_PRES TD9636_LAT TD9636_LON TD9636_STAGE TD9636_WIND TD9636_PRES TD9635_LAT TD9635_LON TD9635_WIND TD9635_PRES TD9635_ROCI NEUMANN_LAT NEUMANN_LON NEUMANN_CLASS NEUMANN_WIND NEUMANN_PRES MLC_LAT MLC_LON MLC_CLASS MLC_WIND MLC_PRES USA_GUST BOM_GUST BOM_GUST_PER REUNION_GUST REUNION_GUST_PER USA_SEAHGT USA_SEARAD_NE USA_SEARAD_SE USA_SEARAD_SW USA_SEARAD_NW STORM_SPEED STORM_DIR
1964342S13068 1965 117 SI MM BESSIE 1964-12-07 00:00:00 TS -13.0000 68.0000 reunion main 1354 1313 _____O______O_ -1 -13.0000 68.0000 2 9.90000 -13.0000 68.0000 TC 30 8 257
1964342S13068 1965 117 SI MM BESSIE 1964-12-07 03:00:00 TS -13.0927 67.5901 main 1313 1313 _____P______P_ -1 -13.0927 67.5901 2 -13.0927 67.5901 TC 30 3 71
1964342S13068 1965 117 SI MM BESSIE 1964-12-07 06:00:00 TS -12.9000 68.3000 reunion main 1387 1363 O____O___OO_O_ jtwc_sh SH071965 -12.3000 70.5000 -1 -13.2000 67.2000 99 9.90000 -12.3000 70.5000 TC 25 -12.3000 70.5000 7 -13.2000 67.2000 TC 30 4 75
1964342S13068 1965 117 SI MM BESSIE 1964-12-07 09:00:00 TS -12.9758 68.0282 main 1354 1322 P____P___PP_P_ SH071965 -12.4932 69.5902 -1 -13.3349 66.8424 99 -12.4932 69.5902 TC 25 -12.5045 69.6469 7 -13.3349 66.8424 TC 30 6 253
1964342S13068 1965 117 SI MM BESSIE 1964-12-07 12:00:00 TS -13.0793 67.6796 reunion main 1322 1272 O____O___OP_O_ jtwc_sh SH071965 -12.7000 68.7000 -1 -13.5000 66.5000 99 9.90000 -12.7000 68.7000 TC 25 -12.7162 68.7845 7 -13.5000 66.5000 TC 30 9 252
1964342S13068 1965 117 SI MM BESSIE 1964-12-07 15:00:00 TS -13.2458 67.1810 main 1272 1200 P____P___PP_P_ SH071965 -12.9347 67.8423 -1 -13.7074 66.1575 99 -12.9347 67.8423 TC 25 -12.9448 67.9051 7 -13.7074 66.1575 TC 32 12 250
1964342S13068 1965 117 SI MM BESSIE 1964-12-07 18:00:00 TS -13.4800 66.5200 reunion main 1192 1128 O____O___OO_O_ jtwc_sh SH071965 -13.2000 67.0000 -1 -13.9000 65.8000 99 9.90000 -13.2000 67.0000 TC 25 -13.2000 67.0000 1 -13.9000 65.8000 TC 35 14 251
1964342S13068 1965 117 SI MM BESSIE 1964-12-07 21:00:00 TS -13.6883 65.8370 main 1120 1056 P____P___PP_P_ SH071965 -13.4922 66.1499 -1 -13.9850 65.4072 99 -13.4922 66.1499 TC 25 -13.4870 66.0706 1 -13.9850 65.4072 TC 35 14 252
1964342S13068 1965 117 SI MM BESSIE 1964-12-08 00:00:00 TS -13.9187 65.1517 reunion main 1056 978 O____O___OP_O_ jtwc_sh SH071965 -13.8000 65.3000 -1 -14.1000 65.0000 3 9.90000 -13.8000 65.3000 TC 25 -13.7934 65.1588 1 -14.1000 65.0000 TC 35 14 248
1964342S13068 1965 117 SI MM BESSIE 1964-12-08 03:00:00 TS -14.2206 64.4656 main 978 908 P____P___PP_P_ SH071965 -14.1077 64.3976 -1 -14.3924 64.6077 3 -14.1077 64.3976 TC 25 -14.1029 64.3174 1 -14.3924 64.6077 TC 37 14 245
1964342S13068 1965 117 SI MM BESSIE 1964-12-08 06:00:00 TS -14.5200 63.8400 reunion main 900 847 O____O___OO_O_ jtwc_sh SH071965 -14.4000 63.6000 -1 -14.7000 64.2000 99 9.90000 -14.4000 63.6000 TC 25 -14.4000 63.6000 1 -14.7000 64.2000 TC 40 12 245
1964342S13068 1965 117 SI MM BESSIE 1964-12-08 09:00:00 TS -14.7343 63.3167 main 847 801 P____P___PP_P_ SH071965 -14.6571 63.0173 -1 -14.8575 63.7498 99 -14.6571 63.0173 TC 25 -14.6424 63.0493 1 -14.8575 63.7498 TC 40 10 246
1964342S13068 1965 117 SI MM BESSIE 1964-12-08 12:00:00 TS -14.9351 62.8852 reunion main 801 747 O____O___OP_O_ jtwc_sh SH071965 -14.9000 62.6000 -1 -15.0000 63.3000 99 9.90000 -14.9000 62.6000 TC 25 -14.8756 62.6262 1 -15.0000 63.3000 TC 40 9 240
1964342S13068 1965 117 SI MM BESSIE 1964-12-08 15:00:00 TS -15.1721 62.5199 main 747 709 P____P___PP_P_ SH071965 -15.1348 62.2698 -1 -15.2349 62.8850 99 -15.1348 62.2698 TC 25 -15.1210 62.2901 1 -15.2349 62.8850 TC 42 8 233
1964342S13068 1965 117 SI MM BESSIE 1964-12-08 18:00:00 TS -15.4400 62.2000 reunion main 709 663 O____O___OO_O_ jtwc_sh SH071965 -15.4000 62.0000 -1 -15.5000 62.5000 99 9.90000 -15.4000 62.0000 TC 25 -15.4000 62.0000 1 -15.5000 62.5000 TC 45 8 228
1964342S13068 1965 117 SI MM BESSIE 1964-12-08 21:00:00 TS -15.7313 61.8758 main 663 616 P____P___PP_P_ SH071965 -15.7275 61.6925 -1 -15.7273 62.1646 99 -15.7275 61.6925 TC 25 -15.7470 61.6648 1 -15.7273 62.1646 TC 45 9 225
1964342S13068 1965 117 SI MM BESSIE 1964-12-09 00:00:00 TS -16.0655 61.5535 reunion main 608 554 O____O___OP_O_ jtwc_sh SH071965 -16.1000 61.4000 -1 -16.0000 61.8000 3 9.90000 -16.1000 61.4000 TC 25 -16.1273 61.3677 1 -16.0000 61.8000 TC 45 10 222
1964342S13068 1965 117 SI MM BESSIE 1964-12-09 03:00:00 TS -16.4579 61.1935 main 546 500 P____P___PP_P_ SH071965 -16.5000 61.1275 -1 -16.3852 61.3003 3 -16.5000 61.1275 TC 25 -16.5190 61.1117 1 -16.3852 61.3003 TC 47 10 220
1964342S13068 1965 117 SI MM BESSIE 1964-12-09 06:00:00 TS -16.8600 60.8600 reunion main 491 445 O____O___OO_O_ jtwc_sh SH071965 -16.9000 60.9000 -1 -16.8000 60.8000 99 9.90000 -16.9000 60.9000 TC 25 -16.9000 60.9000 1 -16.8000 60.8000 TC 50 9 217
1964342S13068 1965 117 SI MM BESSIE 1964-12-09 09:00:00 TS -17.2118 60.5983 main 445 406 P____P___PP_P_ SH071965 -17.2650 60.7274 -1 -17.1349 60.4047 99 -17.2650 60.7274 TC 25 -17.2595 60.7274 1 -17.1349 60.4047 TC 47 8 212
1964342S13068 1965 117 SI MM BESSIE 1964-12-09 12:00:00 TS -17.5604 60.3994 reunion main 398 367 O____O___OP_O_ jtwc_sh SH071965 -17.6000 60.6000 -1 -17.5000 60.1000 99 9.90000 -17.6000 60.6000 TC 25 -17.6022 60.5970 1 -17.5000 60.1000 TC 45 8 205
1964342S13068 1965 117 SI MM BESSIE 1964-12-09 15:00:00 TS -17.9347 60.2435 main 360 322 P____P___PP_P_ SH071965 -17.9150 60.4924 -1 -17.9624 59.8698 99 -17.9150 60.4924 TC 25 -17.9189 60.4931 1 -17.9624 59.8698 TC 42 8 199
1964342S13068 1965 117 SI MM BESSIE 1964-12-09 18:00:00 TS -18.3200 60.1200 reunion main 322 287 O____O___OO_O_ jtwc_sh SH071965 -18.2000 60.4000 -1 -18.5000 59.7000 99 9.90000 -18.2000 60.4000 TC 25 -18.2000 60.4000 1 -18.5000 59.7000 TC 40 8 197
1964342S13068 1965 117 SI MM BESSIE 1964-12-09 21:00:00 TS -18.7409 59.9830 main 287 246 P____P___PP_P_ SH071965 -18.4725 60.3000 -1 -19.1600 59.5052 99 -18.4725 60.3000 TC 25 -18.4395 60.3046 1 -19.1600 59.5052 TC 40 9 198
1964342S13068 1965 117 SI MM BESSIE 1964-12-10 00:00:00 TS -19.1609 59.8245 reunion main 241 222 O____O___OP_O_ jtwc_sh SH071965 -18.7000 60.2000 -1 -19.7000 59.4000 6 9.90000 -18.7000 60.2000 TC 25 -18.6451 60.2053 1 -19.7000 59.4000 TC 40 7 198
1964342S13068 1965 117 SI MM BESSIE 1964-12-10 03:00:00 TS -19.4419 59.7404 main 222 213 P____P___PP_P_ SH071965 -18.8675 60.1000 -1 -19.8825 59.4698 6 -18.8675 60.1000 TC 25 -18.8282 60.1034 1 -19.8825 59.4698 TC 37 5 193
1964342S13068 1965 117 SI MM BESSIE 1964-12-10 06:00:00 TS -19.6545 59.7091 reunion main 209 201 O____O___OO_O_ jtwc_sh SH071965 -19.0000 60.0000 -1 -19.9000 59.6000 99 9.90000 -19.0000 60.0000 TC 25 -19.0000 60.0000 1 -19.9000 59.6000 TC 35 5 188
1964342S13068 1965 117 SI MM BESSIE 1964-12-10 09:00:00 TS -19.9650 59.6650 main 201 201 _____P______P_ SH071965 -1 -19.9650 59.6650 99 TC 1 -19.9650 59.6650 TC 32 3 0
1964342S13068 1965 117 SI MM BESSIE 1964-12-10 12:00:00 TS -20.0000 59.7000 reunion main 201 201 _____O______O_ -1 -20.0000 59.7000 99 9.90000 1 -20.0000 59.7000 TC 30 0 97
1964342S13068 1965 117 SI MM BESSIE 1964-12-10 15:00:00 TS -19.9700 59.7000 main 201 201 _____P______P_ -1 -19.9700 59.7000 99 1 -19.9700 59.7000 TC 27 0 0
1964342S13068 1965 117 SI MM BESSIE 1964-12-10 18:00:00 TS -20.0000 59.7000 reunion main 201 198 _____O______O_ -1 -20.0000 59.7000 99 9.90000 -20.0000 59.7000 TC 25 2 170
1964342S13068 1965 117 SI MM BESSIE 1964-12-10 21:00:00 TS -20.1975 59.7374 main 198 198 _____P______P_ -1 -20.1975 59.7374 99 -20.1975 59.7374 TC 25 5 169
1964342S13068 1965 117 SI MM BESSIE 1964-12-11 00:00:00 TS -20.5000 59.8000 reunion main 209 _____O______O_ -1 -20.5000 59.8000 6 9.90000 -20.5000 59.8000 TC 25 6 171

IBTrACS Databaseについて

本データベースは、米国NOAAが公開する1842年以降の世界の熱帯低気圧のベストトラックデータアーカイブInternational Best Track Archive for Climate Stewardship (IBTrACS)を、ウェブで閲覧しやすい形式に変換したものです。

最終更新日:2021-10-27